Time;durP1;ratioP1;P1;durP2;ratioP2;P2;SDS_P1;SDS_P2;PMS_P1;PMS_P2;Temp;Humidity;BMP_temperature;BMP_pressure;BME280_temperature;BME280_humidity;BME280_pressure;Samples;Min_cycle;Max_cycle;Signal;HPM_P1;HPM_P2
2024/02/04 00:00:10;;;;;;;147.85;139.70;;;9.00;99.90;;;;;;12620011;28;20056;-82
2024/02/04 00:06:12;;;;;;;137.25;129.40;;;9.00;99.90;;;;;;12624559;28;20062;-83
2024/02/04 00:12:14;;;;;;;120.40;113.40;;;9.00;99.90;;;;;;12595829;28;20075;-82
2024/02/04 00:18:16;;;;;;;128.30;121.22;;;9.00;99.90;;;;;;12619824;28;20489;-82
2024/02/04 00:24:21;;;;;;;125.25;118.13;;;8.90;99.90;;;;;;12585406;28;20067;-82
2024/02/04 00:30:23;;;;;;;131.77;124.57;;;8.90;99.90;;;;;;12577343;28;20064;-81
2024/02/04 00:36:25;;;;;;;132.02;124.70;;;8.80;99.90;;;;;;12597935;28;20051;-83
2024/02/04 00:42:27;;;;;;;126.97;119.88;;;8.80;99.90;;;;;;12612877;28;20052;-83
2024/02/04 00:48:29;;;;;;;132.02;124.53;;;8.80;99.90;;;;;;12592367;28;20197;-82
2024/02/04 00:54:31;;;;;;;141.57;133.98;;;8.80;99.90;;;;;;12598579;28;20475;-84
2024/02/04 01:00:33;;;;;;;130.13;122.78;;;8.60;99.90;;;;;;12593709;28;20048;-83
2024/02/04 01:06:35;;;;;;;138.98;131.30;;;8.60;99.90;;;;;;12604862;28;20098;-83
2024/02/04 01:12:57;;;;;;;131.43;124.13;;;8.60;99.90;;;;;;12610671;28;20049;-84
2024/02/04 01:18:59;;;;;;;128.00;120.95;;;8.60;99.90;;;;;;12596451;28;20199;-83
2024/02/04 01:25:01;;;;;;;132.10;125.00;;;8.70;99.90;;;;;;12612361;28;20484;-83
2024/02/04 01:31:03;;;;;;;135.75;128.60;;;8.70;99.90;;;;;;12613720;28;20728;-82
2024/02/04 01:37:05;;;;;;;130.52;123.43;;;8.80;99.90;;;;;;12617733;28;20436;-82
2024/02/04 01:43:07;;;;;;;132.85;125.75;;;8.70;99.90;;;;;;12622774;28;20412;-83
2024/02/04 01:49:10;;;;;;;142.82;135.30;;;8.70;99.90;;;;;;12619107;28;20321;-83
2024/02/04 01:55:12;;;;;;;155.80;147.40;;;8.70;99.90;;;;;;12607353;28;20074;-83
2024/02/04 02:01:14;;;;;;;170.70;161.35;;;8.70;99.90;;;;;;12592042;28;20108;-82
2024/02/04 02:07:18;;;;;;;156.93;148.40;;;8.70;99.90;;;;;;12590121;28;20045;-84
2024/02/04 02:13:28;;;;;;;162.87;154.03;;;8.70;99.90;;;;;;12612995;28;20051;-83
2024/02/04 02:19:50;;;;;;;155.05;146.63;;;8.70;99.90;;;;;;12621322;28;20075;-84
2024/02/04 02:25:53;;;;;;;251.90;238.38;;;8.80;99.90;;;;;;12592350;28;20134;-83
2024/02/04 02:31:55;;;;;;;262.67;248.27;;;8.80;99.90;;;;;;12621093;28;20430;-84
2024/02/04 02:38:03;;;;;;;247.07;233.52;;;8.80;99.90;;;;;;12609939;28;20055;-84
2024/02/04 02:44:06;;;;;;;219.88;207.65;;;8.80;99.90;;;;;;12594407;28;21304;-83
2024/02/04 02:50:09;;;;;;;209.48;197.82;;;8.80;99.90;;;;;;12613545;28;20094;-83
2024/02/04 02:56:11;;;;;;;241.00;228.07;;;8.80;99.90;;;;;;12627235;28;20081;-81
2024/02/04 03:02:13;;;;;;;369.35;349.10;;;8.80;99.90;;;;;;12637463;28;20028;-79
2024/02/04 03:08:16;;;;;;;389.45;368.08;;;8.80;99.90;;;;;;12650546;28;20056;-82
2024/02/04 03:14:19;;;;;;;240.02;227.25;;;8.80;99.90;;;;;;12635340;28;20044;-78
2024/02/04 03:20:21;;;;;;;257.40;243.77;;;8.80;99.90;;;;;;12659717;28;20049;-79
2024/02/04 03:26:23;;;;;;;237.68;224.63;;;8.90;99.90;;;;;;12672962;28;20056;-80
2024/02/04 03:32:25;;;;;;;187.93;177.57;;;8.80;99.90;;;;;;12626376;28;20049;-78
2024/02/04 03:38:26;;;;;;;187.80;177.70;;;8.90;99.90;;;;;;12627110;28;20055;-80
2024/02/04 03:44:28;;;;;;;200.10;189.27;;;8.90;99.90;;;;;;12658816;28;20074;-82
2024/02/04 03:50:30;;;;;;;210.25;199.07;;;8.80;99.90;;;;;;12648848;28;20063;-78
2024/02/04 03:56:32;;;;;;;180.90;171.27;;;8.70;99.90;;;;;;12659725;28;20051;-79
2024/02/04 04:02:34;;;;;;;188.48;178.82;;;8.70;99.90;;;;;;12636409;28;20052;-80
2024/02/04 04:08:37;;;;;;;193.95;183.90;;;8.70;99.90;;;;;;12628669;28;20064;-83
2024/02/04 04:14:39;;;;;;;136.87;129.50;;;8.70;99.90;;;;;;12580315;28;20062;-82
2024/02/04 04:20:43;;;;;;;128.68;121.60;;;8.70;99.90;;;;;;12606258;28;20097;-83
2024/02/04 04:26:45;;;;;;;120.90;114.65;;;8.80;99.90;;;;;;12618280;28;20063;-83
2024/02/04 04:32:47;;;;;;;115.72;109.68;;;8.90;99.90;;;;;;12595066;28;20135;-83
2024/02/04 04:38:50;;;;;;;103.57;98.07;;;8.90;99.90;;;;;;12608094;28;20044;-83
2024/02/04 04:44:52;;;;;;;103.43;98.00;;;9.00;99.90;;;;;;12629246;28;20062;-83
2024/02/04 04:50:54;;;;;;;105.93;100.40;;;9.00;99.90;;;;;;12652960;28;20048;-83
2024/02/04 04:56:56;;;;;;;110.70;104.80;;;9.00;99.90;;;;;;12657388;28;20051;-84
2024/02/04 05:02:58;;;;;;;84.70;80.20;;;9.00;99.90;;;;;;12614929;28;20080;-81
2024/02/04 05:09:00;;;;;;;78.13;74.07;;;9.20;99.90;;;;;;12609549;28;20059;-82
2024/02/04 05:15:02;;;;;;;74.82;71.13;;;9.10;99.90;;;;;;12631586;28;20087;-85
2024/02/04 05:21:04;;;;;;;78.43;74.40;;;9.20;99.90;;;;;;12643996;28;20066;-79
2024/02/04 05:27:06;;;;;;;104.93;99.60;;;9.20;99.90;;;;;;12640874;28;20039;-82
2024/02/04 05:33:08;;;;;;;102.18;96.78;;;9.10;99.90;;;;;;12657425;28;20060;-83
2024/02/04 05:39:12;;;;;;;101.88;96.78;;;9.10;99.90;;;;;;12629437;28;20048;-79
2024/02/04 05:45:14;;;;;;;81.22;76.93;;;9.10;99.90;;;;;;12656235;28;20052;-80
2024/02/04 05:51:16;;;;;;;74.03;70.03;;;9.00;99.90;;;;;;12642504;28;20135;-79
2024/02/04 05:57:20;;;;;;;67.75;63.92;;;9.00;99.90;;;;;;12657633;28;20045;-82
2024/02/04 06:03:22;;;;;;;73.97;69.97;;;9.00;99.90;;;;;;12656174;28;20120;-80
2024/02/04 06:09:24;;;;;;;70.88;67.07;;;9.00;99.90;;;;;;12636387;28;20086;-78
2024/02/04 06:15:26;;;;;;;75.75;71.78;;;9.00;99.90;;;;;;12623638;28;20060;-78
2024/02/04 06:21:28;;;;;;;73.63;69.80;;;8.80;99.90;;;;;;12634686;28;20048;-78
2024/02/04 06:27:30;;;;;;;66.90;63.25;;;8.80;99.90;;;;;;12660580;28;20052;-85
2024/02/04 06:33:32;;;;;;;63.20;60.00;;;8.80;99.90;;;;;;12627270;28;20044;-84
2024/02/04 06:39:34;;;;;;;63.60;60.20;;;8.80;99.90;;;;;;12632618;28;20115;-82
2024/02/04 06:45:36;;;;;;;63.00;59.80;;;8.80;99.90;;;;;;12652671;28;20032;-84
2024/02/04 06:51:38;;;;;;;61.22;58.03;;;8.70;99.90;;;;;;12612712;28;20048;-85
2024/02/04 06:57:40;;;;;;;57.50;54.30;;;8.70;99.90;;;;;;12546838;28;20049;-82
2024/02/04 07:03:42;;;;;;;57.05;53.95;;;8.70;99.90;;;;;;12528640;28;20780;-83
2024/02/04 07:09:44;;;;;;;52.30;49.70;;;8.70;99.90;;;;;;12544153;28;20053;-85
2024/02/04 07:15:47;;;;;;;56.47;53.58;;;8.80;99.90;;;;;;12560391;28;20143;-82
2024/02/04 07:21:48;;;;;;;54.42;51.55;;;8.80;99.90;;;;;;12538669;28;20394;-84
2024/02/04 07:27:50;;;;;;;57.00;53.55;;;8.70;99.90;;;;;;12554695;28;20061;-82
2024/02/04 07:33:52;;;;;;;57.40;54.40;;;8.80;99.90;;;;;;12536404;28;20096;-83
2024/02/04 07:39:54;;;;;;;61.50;58.22;;;8.70;99.90;;;;;;12543803;28;20341;-81
2024/02/04 07:45:56;;;;;;;54.38;51.60;;;8.70;99.90;;;;;;12554274;28;20049;-81
2024/02/04 07:52:00;;;;;;;61.40;58.08;;;8.60;99.90;;;;;;12542078;28;20060;-83
2024/02/04 07:58:02;;;;;;;52.45;49.45;;;8.70;99.90;;;;;;12533560;28;20049;-82
2024/02/04 08:04:07;;;;;;;54.97;52.17;;;8.70;99.90;;;;;;12518808;28;20060;-82
2024/02/04 08:10:09;;;;;;;;;;;8.60;99.90;;;;;;12523641;28;20053;-82
2024/02/04 08:16:11;;;;;;;51.22;48.33;;;8.50;99.90;;;;;;12524999;28;19921;-83
2024/02/04 08:22:13;;;;;;;54.53;51.55;;;8.60;99.90;;;;;;12516765;28;20108;-81
2024/02/04 08:28:15;;;;;;;52.13;49.33;;;8.50;99.90;;;;;;12539362;28;20083;-81
2024/02/04 08:34:19;;;;;;;53.47;50.28;;;8.60;99.90;;;;;;12540139;28;20046;-81
2024/02/04 08:40:21;;;;;;;53.38;50.22;;;8.60;99.90;;;;;;12519665;28;20060;-82
2024/02/04 08:46:23;;;;;;;53.78;50.85;;;8.50;99.90;;;;;;12517399;28;20146;-83
2024/02/04 08:52:25;;;;;;;53.97;50.97;;;8.50;99.90;;;;;;12526938;28;20045;-81
2024/02/04 08:58:28;;;;;;;50.72;47.90;;;8.50;99.90;;;;;;12636664;28;20048;-81
2024/02/04 09:04:29;;;;;;;50.83;47.65;;;8.50;99.90;;;;;;12634854;28;20048;-78
2024/02/04 09:10:31;;;;;;;53.75;50.83;;;8.50;99.90;;;;;;12607726;28;20143;-82
2024/02/04 09:16:33;;;;;;;53.72;50.67;;;8.60;99.90;;;;;;12604678;28;20071;-81
2024/02/04 09:22:35;;;;;;;66.40;62.85;;;8.50;99.90;;;;;;12623949;28;20045;-82
2024/02/04 09:28:37;;;;;;;58.03;54.42;;;8.50;99.90;;;;;;12621000;28;20492;-81
2024/02/04 09:34:40;;;;;;;53.72;50.88;;;8.50;99.90;;;;;;12624855;28;20496;-82
2024/02/04 09:40:42;;;;;;;58.83;54.95;;;8.60;99.90;;;;;;12658129;28;20144;-82
2024/02/04 09:46:44;;;;;;;62.28;58.72;;;8.70;99.90;;;;;;12610021;28;20051;-81
2024/02/04 09:52:52;;;;;;;59.25;56.00;;;8.70;99.90;;;;;;12621142;28;20416;-82
2024/02/04 09:58:54;;;;;;;67.30;63.10;;;8.80;99.90;;;;;;12604865;28;20156;-81
2024/02/04 10:04:57;;;;;;;63.90;60.60;;;8.90;99.90;;;;;;12628487;28;20057;-84
2024/02/04 10:10:59;;;;;;;72.78;69.07;;;9.00;99.90;;;;;;12642918;28;20056;-83
2024/02/04 10:17:01;;;;;;;63.38;60.08;;;9.00;99.90;;;;;;12640827;28;20714;-84
2024/02/04 10:23:03;;;;;;;67.07;63.67;;;9.00;99.90;;;;;;12615845;28;20052;-85
2024/02/04 10:29:06;;;;;;;64.43;61.08;;;9.10;99.90;;;;;;12618534;28;20229;-82
2024/02/04 10:35:08;;;;;;;74.35;70.35;;;9.20;99.90;;;;;;12603629;28;20056;-83
2024/02/04 10:41:15;;;;;;;83.97;79.78;;;9.10;99.90;;;;;;12609259;28;20091;-85
2024/02/04 10:47:23;;;;;;;63.40;59.97;;;9.10;99.90;;;;;;12607291;28;20052;-84
2024/02/04 10:53:25;;;;;;;70.18;66.70;;;9.10;99.90;;;;;;12604340;28;20084;-83
2024/02/04 10:59:29;;;;;;;69.97;66.25;;;9.10;99.90;;;;;;12601400;28;20508;-83
2024/02/04 11:05:34;;;;;;;65.07;61.78;;;9.10;99.90;;;;;;12572239;28;20094;-84
2024/02/04 11:11:38;;;;;;;67.47;63.78;;;9.20;99.90;;;;;;12609223;28;20080;-83
2024/02/04 11:18:02;;;;;;;62.87;59.53;;;9.10;99.90;;;;;;12602520;28;20052;-83
2024/02/04 11:24:22;;;;;;;72.05;68.35;;;9.10;99.90;;;;;;12604290;28;20064;-83
2024/02/04 11:30:24;;;;;;;64.28;60.60;;;9.00;99.90;;;;;;12647141;28;20032;-84
2024/02/04 11:36:26;;;;;;;60.20;57.20;;;9.00;99.90;;;;;;12600019;28;20064;-84
2024/02/04 11:42:32;;;;;;;73.63;69.80;;;9.20;99.90;;;;;;12619830;28;20098;-85
2024/02/04 11:48:36;;;;;;;79.53;75.32;;;9.10;99.90;;;;;;12625939;28;20151;-80
2024/02/04 11:54:38;;;;;;;;;;;9.10;99.90;;;;;;12581988;28;20061;-81
2024/02/04 12:00:45;;;;;;;67.70;64.10;;;9.10;99.90;;;;;;12628892;28;19924;-81
2024/02/04 12:06:47;;;;;;;74.07;70.18;;;9.10;99.90;;;;;;12603452;28;20509;-82
2024/02/04 12:12:50;;;;;;;72.95;69.15;;;9.00;99.90;;;;;;12612420;28;20056;-82
2024/02/04 12:18:53;;;;;;;77.00;72.97;;;9.10;99.90;;;;;;12603802;28;20167;-83
2024/02/04 12:24:55;;;;;;;77.22;73.10;;;9.10;99.90;;;;;;12609668;28;20139;-82
2024/02/04 12:31:00;;;;;;;72.97;69.20;;;9.00;99.90;;;;;;12599943;28;20080;-81
2024/02/04 12:37:02;;;;;;;72.93;69.18;;;9.10;99.90;;;;;;12597214;28;20056;-82
2024/02/04 12:43:04;;;;;;;81.88;77.72;;;9.10;99.90;;;;;;12601233;28;20053;-81
2024/02/04 12:49:08;;;;;;;80.90;76.70;;;9.10;99.90;;;;;;12609858;28;20060;-80
2024/02/04 12:55:20;;;;;;;81.22;76.90;;;9.10;99.90;;;;;;12590521;28;20056;-81
2024/02/04 13:01:22;;;;;;;92.63;87.72;;;9.20;99.90;;;;;;12585969;28;20574;-80
2024/02/04 13:07:24;;;;;;;89.35;84.50;;;9.30;99.90;;;;;;12610122;28;20109;-81
2024/02/04 13:13:28;;;;;;;95.65;89.97;;;9.40;99.90;;;;;;12610350;28;20052;-82
2024/02/04 13:19:38;;;;;;;109.17;102.77;;;9.40;99.90;;;;;;12625463;28;20065;-84
2024/02/04 13:25:40;;;;;;;118.72;110.05;;;9.50;99.90;;;;;;12609010;28;20051;-80
2024/02/04 13:31:42;;;;;;;109.57;102.82;;;9.50;99.90;;;;;;12619143;28;20143;-83
2024/02/04 13:37:46;;;;;;;113.95;106.88;;;9.50;99.90;;;;;;12605650;28;20127;-80
2024/02/04 13:43:49;;;;;;;101.82;96.22;;;9.60;99.90;;;;;;12603594;28;20063;-80
2024/02/04 13:49:51;;;;;;;89.30;84.80;;;9.60;99.90;;;;;;12623977;28;20047;-82
2024/02/04 13:55:53;;;;;;;83.88;79.10;;;9.70;99.90;;;;;;12663110;28;20050;-84
2024/02/04 14:02:01;;;;;;;88.15;83.55;;;9.70;99.90;;;;;;12645504;28;20041;-82
2024/02/04 14:08:03;;;;;;;73.35;69.45;;;9.60;99.90;;;;;;12636904;28;20087;-82
2024/02/04 14:14:05;;;;;;;80.28;75.80;;;9.70;99.90;;;;;;12631678;28;20040;-80
2024/02/04 14:20:09;;;;;;;66.93;63.53;;;9.50;99.90;;;;;;12636852;28;20044;-84
2024/02/04 14:26:20;;;;;;;75.18;71.38;;;9.60;99.90;;;;;;12606746;28;20582;-85
2024/02/04 14:32:22;;;;;;;67.57;64.18;;;9.60;99.90;;;;;;12602821;28;20049;-84
2024/02/04 14:38:24;;;;;;;84.88;80.65;;;9.50;99.90;;;;;;12605146;28;20052;-83
2024/02/04 14:44:26;;;;;;;70.70;67.10;;;9.40;99.90;;;;;;12593674;28;20060;-84
2024/02/04 14:50:29;;;;;;;74.40;70.60;;;9.40;99.90;;;;;;12619425;28;20043;-84
2024/02/04 14:56:36;;;;;;;86.57;82.22;;;9.40;99.90;;;;;;12596750;28;20056;-84
2024/02/04 15:02:38;;;;;;;82.18;77.82;;;9.20;99.90;;;;;;12632831;28;20057;-81
2024/02/04 15:08:40;;;;;;;77.20;73.05;;;9.10;99.90;;;;;;12643039;28;20052;-83
2024/02/04 15:14:42;;;;;;;79.28;75.28;;;9.10;99.90;;;;;;12626456;28;20043;-82
2024/02/04 15:20:44;;;;;;;75.53;71.72;;;8.90;99.90;;;;;;12643399;28;20054;-83
2024/02/04 15:26:49;;;;;;;72.78;68.97;;;8.90;99.90;;;;;;12616913;28;20056;-82
2024/02/04 15:32:52;;;;;;;;;;;8.80;99.90;;;;;;12630328;28;20067;-81
2024/02/04 15:38:54;;;;;;;69.40;65.88;;;8.70;99.90;;;;;;12632995;28;20073;-81
2024/02/04 15:44:56;;;;;;;71.93;68.22;;;8.70;99.90;;;;;;12610102;28;20060;-82
2024/02/04 15:50:58;;;;;;;77.90;74.03;;;8.50;99.90;;;;;;12639851;28;20064;-81
2024/02/04 15:57:08;;;;;;;70.80;67.20;;;8.50;99.90;;;;;;12581734;28;20056;-81
2024/02/04 16:03:10;;;;;;;68.75;65.20;;;8.50;99.90;;;;;;12598651;28;20048;-82
2024/02/04 16:09:13;;;;;;;72.82;69.18;;;8.50;99.90;;;;;;12589408;28;20067;-83
2024/02/04 16:15:18;;;;;;;70.15;66.53;;;8.40;99.90;;;;;;12559288;28;20049;-84
2024/02/04 16:21:20;;;;;;;82.05;78.05;;;8.40;99.90;;;;;;12561014;28;20048;-84
2024/02/04 16:27:22;;;;;;;90.40;86.00;;;8.40;99.90;;;;;;12561115;28;20065;-84
2024/02/04 16:33:24;;;;;;;90.65;86.13;;;8.50;99.90;;;;;;12560199;28;20081;-82
2024/02/04 16:39:28;;;;;;;91.55;86.97;;;8.40;99.90;;;;;;12553114;28;20083;-81
2024/02/04 16:45:31;;;;;;;100.32;95.32;;;8.50;99.90;;;;;;12586591;28;20101;-84
2024/02/04 16:51:40;;;;;;;108.28;102.85;;;8.50;99.90;;;;;;12582422;28;20067;-82
2024/02/04 16:57:44;;;;;;;123.13;117.05;;;8.50;99.90;;;;;;12515579;28;20136;-83
2024/02/04 17:03:49;;;;;;;133.00;126.30;;;8.50;99.90;;;;;;12531067;28;20056;-82
2024/02/04 17:09:52;;;;;;;145.75;138.40;;;8.50;99.90;;;;;;12544631;28;20538;-83
2024/02/04 17:15:55;;;;;;;143.55;136.05;;;8.50;99.90;;;;;;12533479;28;20046;-82
2024/02/04 17:22:00;;;;;;;141.82;134.57;;;8.60;99.90;;;;;;12539195;28;20533;-79
2024/02/04 17:28:04;;;;;;;140.80;133.73;;;8.60;99.90;;;;;;12517764;28;20070;-79
2024/02/04 17:34:07;;;;;;;153.70;145.90;;;8.70;99.90;;;;;;12509979;28;20068;-80
2024/02/04 17:40:09;;;;;;;165.75;157.15;;;8.80;99.90;;;;;;12505019;28;20407;-80
2024/02/04 17:46:11;;;;;;;183.80;174.20;;;8.70;99.90;;;;;;12538082;28;20064;-80
2024/02/04 17:52:13;;;;;;;184.25;174.70;;;8.80;99.90;;;;;;12533647;28;20071;-81
2024/02/04 17:58:19;;;;;;;210.95;199.77;;;8.80;99.90;;;;;;12572222;28;20048;-81
2024/02/04 18:04:21;;;;;;;224.13;212.05;;;8.80;99.90;;;;;;12568581;28;20148;-80
2024/02/04 18:10:24;;;;;;;236.18;223.57;;;8.90;99.90;;;;;;12562224;28;20113;-80
2024/02/04 18:16:26;;;;;;;260.40;246.40;;;9.00;99.90;;;;;;12566821;28;20076;-80
2024/02/04 18:22:28;;;;;;;275.02;259.95;;;9.10;99.90;;;;;;12578742;28;20106;-79
2024/02/04 18:28:30;;;;;;;273.50;258.58;;;9.10;99.90;;;;;;12564444;28;21670;-80
2024/02/04 18:34:32;;;;;;;267.85;253.15;;;9.20;99.90;;;;;;12593666;28;20057;-80
2024/02/04 18:40:34;;;;;;;273.67;258.77;;;9.30;99.90;;;;;;12554508;28;20049;-81
2024/02/04 18:46:39;;;;;;;260.40;246.43;;;9.30;99.90;;;;;;12567433;28;20068;-80
2024/02/04 18:52:40;;;;;;;255.13;241.43;;;9.40;99.90;;;;;;12561601;28;20060;-79
2024/02/04 18:58:47;;;;;;;268.85;254.07;;;9.40;99.90;;;;;;12498582;28;20045;-79
2024/02/04 19:04:52;;;;;;;274.23;258.98;;;9.40;99.90;;;;;;12497411;28;20079;-80
2024/02/04 19:10:56;;;;;;;332.48;313.50;;;9.50;99.90;;;;;;12500823;28;20091;-80
2024/02/04 19:16:58;;;;;;;315.13;297.42;;;9.60;99.90;;;;;;12515789;28;20057;-82
2024/02/04 19:23:00;;;;;;;319.02;301.42;;;9.60;99.90;;;;;;12534929;28;20083;-81
2024/02/04 19:29:02;;;;;;;494.45;465.73;;;9.50;99.90;;;;;;12502856;28;20064;-80
2024/02/04 19:35:04;;;;;;;508.33;478.77;;;9.50;99.90;;;;;;12483764;28;20095;-80
2024/02/04 19:41:06;;;;;;;491.83;463.45;;;9.60;99.90;;;;;;12508013;28;20056;-82
2024/02/04 19:47:08;;;;;;;333.38;314.85;;;9.70;99.90;;;;;;12478945;28;20076;-83
2024/02/04 19:53:10;;;;;;;329.73;310.98;;;9.70;99.90;;;;;;12520923;28;20052;-84
2024/02/04 19:59:12;;;;;;;335.55;316.55;;;9.80;99.90;;;;;;12603178;28;20504;-82
2024/02/04 20:05:16;;;;;;;304.48;287.45;;;9.90;99.90;;;;;;12629941;28;20067;-84
2024/02/04 20:11:18;;;;;;;319.25;301.23;;;9.90;99.90;;;;;;12614977;28;20049;-85
2024/02/04 20:17:20;;;;;;;286.92;270.52;;;9.90;99.90;;;;;;12597501;28;20773;-86
2024/02/04 20:23:22;;;;;;;280.92;265.20;;;10.00;99.90;;;;;;12601149;28;20076;-86
2024/02/04 20:29:24;;;;;;;252.35;237.98;;;10.00;99.90;;;;;;12608300;28;20136;-85
2024/02/04 20:35:27;;;;;;;222.63;210.25;;;10.10;99.90;;;;;;12607728;28;20059;-83
2024/02/04 20:41:30;;;;;;;207.53;195.97;;;10.10;99.90;;;;;;12592890;28;20166;-83
2024/02/04 20:47:32;;;;;;;208.50;196.82;;;10.20;99.90;;;;;;12612110;28;20051;-84
2024/02/04 20:53:34;;;;;;;212.07;200.10;;;10.30;99.90;;;;;;12609334;28;20133;-84
2024/02/04 20:59:36;;;;;;;215.60;203.30;;;10.30;99.90;;;;;;12630024;28;20500;-84
2024/02/04 21:05:39;;;;;;;213.07;200.95;;;10.20;99.90;;;;;;12607887;28;20056;-84
2024/02/04 21:11:41;;;;;;;219.68;207.07;;;10.20;99.90;;;;;;12612870;28;20059;-85
2024/02/04 21:17:43;;;;;;;252.50;238.07;;;10.20;99.90;;;;;;12644803;28;20488;-84
2024/02/04 21:23:45;;;;;;;268.77;253.35;;;10.10;99.90;;;;;;12631992;28;20063;-85
2024/02/04 21:29:47;;;;;;;275.27;259.88;;;10.00;99.90;;;;;;12632509;28;20028;-84
2024/02/04 21:35:49;;;;;;;303.55;286.33;;;9.90;99.90;;;;;;12601803;28;20102;-85
2024/02/04 21:41:51;;;;;;;320.10;301.48;;;10.00;99.90;;;;;;12653185;28;20044;-83
2024/02/04 21:47:53;;;;;;;362.33;340.83;;;9.90;99.90;;;;;;12657552;28;20072;-82
2024/02/04 21:53:56;;;;;;;328.88;310.13;;;10.00;99.90;;;;;;12636440;28;20056;-84
2024/02/04 21:59:58;;;;;;;341.20;321.50;;;10.00;99.90;;;;;;12644913;28;20048;-83
2024/02/04 22:06:02;;;;;;;322.63;304.17;;;10.00;99.90;;;;;;12628120;28;20052;-83
2024/02/04 22:12:04;;;;;;;303.67;286.35;;;10.00;99.90;;;;;;12652400;28;20055;-84
2024/02/04 22:18:06;;;;;;;305.63;288.08;;;10.00;99.90;;;;;;12650988;28;20068;-85
2024/02/04 22:24:09;;;;;;;305.50;287.77;;;10.10;99.90;;;;;;12643631;28;20047;-83
2024/02/04 22:30:11;;;;;;;307.85;290.17;;;10.10;99.90;;;;;;12643674;28;20040;-83
2024/02/04 22:36:13;;;;;;;430.42;404.77;;;10.10;99.90;;;;;;12625913;28;20044;-84
2024/02/04 22:42:15;;;;;;;357.60;336.45;;;10.10;99.90;;;;;;12651798;28;20056;-85
2024/02/04 22:48:17;;;;;;;341.33;320.70;;;10.10;99.90;;;;;;12634440;28;20060;-82
2024/02/04 22:54:19;;;;;;;362.10;340.90;;;10.10;99.90;;;;;;12628945;28;20397;-82
2024/02/04 23:00:28;;;;;;;321.55;303.00;;;10.10;99.90;;;;;;12620743;28;20063;-86
2024/02/04 23:06:31;;;;;;;320.27;301.63;;;10.10;99.90;;;;;;12637600;28;20048;-84
2024/02/04 23:12:33;;;;;;;322.90;304.10;;;10.20;99.90;;;;;;12619402;28;20056;-82
2024/02/04 23:18:35;;;;;;;338.73;318.85;;;10.20;99.90;;;;;;12603022;28;20416;-82
2024/02/04 23:24:37;;;;;;;317.83;299.23;;;10.10;99.90;;;;;;12598554;28;20101;-82
2024/02/04 23:30:39;;;;;;;318.90;300.35;;;10.20;99.90;;;;;;12593228;28;20055;-82
2024/02/04 23:36:41;;;;;;;320.92;302.13;;;10.20;99.90;;;;;;12604441;28;20044;-83
2024/02/04 23:42:43;;;;;;;340.08;320.05;;;10.10;99.90;;;;;;12617629;28;20074;-84
2024/02/04 23:48:45;;;;;;;347.50;327.05;;;10.10;99.90;;;;;;12601320;28;20083;-81
2024/02/04 23:54:47;;;;;;;367.27;345.52;;;10.10;99.90;;;;;;12607719;28;20477;-83
